Time;durP1;ratioP1;P1;durP2;ratioP2;P2;SDS_P1;SDS_P2;PMS_P1;PMS_P2;Temp;Humidity;BMP_temperature;BMP_pressure;BME280_temperature;BME280_humidity;BME280_pressure;Samples;Min_cycle;Max_cycle;Signal;HPM_P1;HPM_P2
2022/03/09 00:29:53;;;;;;;3.40;3.05;;;;;;;4.19;45.09;99788.84;1772015;80;23316;-63
2022/03/09 00:32:20;;;;;;;3.52;2.67;;;;;;;5.12;43.26;99790.34;1741447;81;21525;-63
2022/03/09 00:34:46;;;;;;;3.60;3.07;;;;;;;5.29;43.35;99790.03;1737596;81;21757;-63
2022/03/09 00:37:13;;;;;;;6.33;3.30;;;;;;;5.32;43.08;99793.05;1737930;81;22089;-63
2022/03/09 00:39:39;;;;;;;3.35;3.05;;;;;;;5.32;42.75;99788.69;1730576;81;21092;-63
2022/03/09 00:42:07;;;;;;;3.47;3.10;;;;;;;5.33;43.30;99780.41;1740365;81;21378;-63
2022/03/09 00:44:33;;;;;;;5.72;3.25;;;;;;;5.35;43.16;99787.76;1726113;81;21537;-63
2022/03/09 00:46:59;;;;;;;3.37;2.70;;;;;;;5.34;42.81;99788.21;1738525;81;22348;-63
2022/03/09 00:49:26;;;;;;;4.35;2.98;;;;;;;5.37;43.01;99785.98;1731878;81;21498;-63
2022/03/09 00:51:54;;;;;;;2.87;2.67;;;;;;;5.39;42.89;99793.36;1724619;81;21545;-64
2022/03/09 00:54:20;;;;;;;3.33;2.60;;;;;;;5.41;43.51;99796.34;1738240;81;20933;-63
2022/03/09 00:56:48;;;;;;;2.90;2.60;;;;;;;5.37;42.87;99786.86;1743206;81;21533;-63
2022/03/09 00:59:14;;;;;;;5.42;2.87;;;;;;;11.90;33.37;99767.03;1739160;81;22307;-64
2022/03/09 01:01:41;;;;;;;2.87;2.20;;;;;;;12.43;31.65;99758.38;1740843;81;21386;-65
2022/03/09 01:04:08;;;;;;;3.30;2.52;;;;;;;12.75;31.50;99757.70;1733191;81;21597;-65
2022/03/09 01:06:35;;;;;;;2.75;2.42;;;;;;;12.83;31.26;99760.36;1739553;81;21608;-65
2022/03/09 01:09:02;;;;;;;2.60;2.27;;;;;;;12.94;30.59;99762.47;1726544;81;21573;-66
2022/03/09 01:11:29;;;;;;;3.92;2.75;;;;;;;13.13;30.73;99767.66;1740168;81;21494;-66
2022/03/09 01:13:57;;;;;;;3.12;2.83;;;;;;;13.15;30.34;99765.80;1730945;81;29387;-66
2022/03/09 01:16:23;;;;;;;3.97;2.73;;;;;;;13.26;30.37;99765.25;1736866;81;21408;-66
2022/03/09 01:18:51;;;;;;;3.15;2.85;;;;;;;13.01;30.44;99765.16;1736158;81;21490;-66
2022/03/09 01:21:18;;;;;;;3.83;2.33;;;;;;;13.07;30.51;99767.95;1735757;81;21449;-66
2022/03/09 01:23:45;;;;;;;4.92;3.05;;;;;;;13.00;30.19;99767.91;1735700;81;22335;-66
2022/03/09 01:26:11;;;;;;;4.60;3.47;;;;;;;12.91;30.22;99770.53;1730553;81;21375;-66
2022/03/09 01:28:38;;;;;;;4.55;3.35;;;;;;;12.87;30.21;99771.63;1721447;81;21586;-66
2022/03/09 01:31:04;;;;;;;4.10;3.20;;;;;;;7.24;37.25;99792.63;1722522;82;20950;-65
2022/03/09 01:33:31;;;;;;;4.17;3.60;;;;;;;6.21;39.25;99805.13;1698864;82;21509;-64
2022/03/09 01:35:57;;;;;;;4.75;3.25;;;;;;;6.24;38.95;99797.70;1713472;82;22343;-65
2022/03/09 01:38:24;;;;;;;5.08;3.62;;;;;;;5.89;40.11;99795.37;1708130;82;21369;-64
2022/03/09 01:40:50;;;;;;;7.00;3.67;;;;;;;5.73;40.91;99799.20;1713845;82;21540;-64
2022/03/09 01:43:18;;;;;;;4.28;3.25;;;;;;;6.24;40.99;99796.39;1718860;82;21425;-67
2022/03/09 01:45:44;;;;;;;4.67;3.70;;;;;;;6.26;40.62;99798.52;1726724;82;21371;-65
2022/03/09 01:48:11;;;;;;;4.22;3.22;;;;;;;5.80;41.48;99800.35;1716603;82;22348;-68
2022/03/09 01:50:39;;;;;;;;;;;;;;;5.71;41.67;99803.57;1721235;82;21536;-66
2022/03/09 01:53:05;;;;;;;3.53;2.63;;;;;;;6.05;41.23;99799.86;1721320;82;20451;-65
2022/03/09 01:55:32;;;;;;;3.80;3.10;;;;;;;5.83;41.72;99809.40;1728040;82;22636;-65
2022/03/09 01:57:59;;;;;;;3.75;3.02;;;;;;;5.75;41.99;99803.49;1717701;82;21512;-66
2022/03/09 02:00:26;;;;;;;3.80;3.08;;;;;;;5.77;42.82;99802.16;1715549;82;22319;-65
2022/03/09 02:02:53;;;;;;;3.45;3.02;;;;;;;5.90;42.45;99804.08;1722453;82;21408;-64
2022/03/09 02:05:20;;;;;;;7.47;3.05;;;;;;;6.11;42.07;99813.23;1727858;82;21477;-64
2022/03/09 02:10:35;;;;;;;4.42;3.33;;;;;;;5.73;45.90;99814.86;1723066;82;21565;-62
2022/03/09 02:13:02;;;;;;;4.12;2.67;;;;;;;11.38;35.46;99793.92;1724888;82;22628;-62
2022/03/09 12:45:56;;;;;;;4.78;3.77;;;;;;;10.16;34.22;99977.16;1854355;74;22765;-61
2022/03/09 12:48:23;;;;;;;4.45;4.03;;;;;;;9.70;33.28;99979.16;1847862;76;21418;-61
2022/03/09 12:50:50;;;;;;;4.87;4.08;;;;;;;9.59;33.24;99977.77;1836606;75;22718;-62
2022/03/09 12:53:20;;;;;;;3.85;3.52;;;;;;;9.61;33.53;99978.15;1839380;75;21466;-62
2022/03/09 12:55:47;;;;;;;5.53;4.17;;;;;;;12.91;30.14;99965.81;1835053;75;21481;-61
2022/03/09 12:58:27;;;;;;;5.15;4.33;;;;;;;10.01;31.55;99971.52;1834103;75;21452;-61
2022/03/09 13:01:04;;;;;;;4.40;3.90;;;;;;;9.82;32.20;99977.02;1668961;83;21517;-62
2022/03/09 13:03:31;;;;;;;5.00;4.47;;;;;;;9.63;33.07;99973.70;1668527;85;22403;-60
2022/03/09 13:05:59;;;;;;;5.05;4.45;;;;;;;12.82;27.29;99964.45;1672289;83;21052;-60
2022/03/09 13:08:27;;;;;;;;;;;;;;;10.07;31.64;99963.87;1687649;83;21395;-59
2022/03/09 13:10:55;;;;;;;4.87;3.87;;;;;;;9.48;32.97;99968.97;1666893;83;20698;-60
2022/03/09 13:13:30;;;;;;;5.72;5.10;;;;;;;9.47;33.59;99973.80;1667848;83;21354;-60
2022/03/09 13:15:59;;;;;;;5.37;4.33;;;;;;;9.41;33.28;99975.31;1676550;85;22432;-59
2022/03/09 13:18:33;;;;;;;4.33;3.85;;;;;;;9.58;33.42;99982.17;1662079;85;21475;-60
2022/03/09 13:21:02;;;;;;;5.20;4.42;;;;;;;11.55;30.48;99976.66;1667135;84;21516;-60
2022/03/09 13:23:32;;;;;;;4.50;4.10;;;;;;;13.18;27.82;99968.91;1661918;84;21421;-60
2022/03/09 13:26:16;;;;;;;5.33;4.03;;;;;;;11.54;30.44;99973.16;1675258;83;21509;-60
2022/03/09 13:28:48;;;;;;;5.58;4.15;;;;;;;12.78;28.03;99964.21;1660773;84;22487;-59
2022/03/09 13:31:20;;;;;;;6.17;4.35;;;;;;;10.41;31.46;99972.73;1667704;83;20984;-60
2022/03/09 13:33:46;;;;;;;4.97;4.12;;;;;;;10.33;31.47;99978.27;1668635;85;21570;-60
2022/03/09 13:36:18;;;;;;;5.97;4.22;;;;;;;9.86;32.72;99977.31;1662006;84;21663;-60
2022/03/09 13:38:58;;;;;;;4.33;3.92;;;;;;;9.77;32.70;99988.13;1659059;84;21554;-60
2022/03/09 13:41:26;;;;;;;4.50;4.10;;;;;;;9.69;32.44;99982.67;1662192;85;22732;-59
2022/03/09 13:43:53;;;;;;;5.42;4.78;;;;;;;9.63;32.63;99984.66;1668885;84;21537;-59
2022/03/09 13:46:22;;;;;;;5.00;4.40;;;;;;;9.63;33.11;99989.45;1664635;83;21466;-59
2022/03/09 13:49:06;;;;;;;4.60;4.05;;;;;;;14.82;27.63;99975.11;1661192;84;21467;-59
2022/03/09 13:51:33;;;;;;;4.87;4.10;;;;;;;10.07;31.78;99988.83;1662300;85;21400;-60
2022/03/09 13:54:04;;;;;;;4.93;4.27;;;;;;;9.61;33.10;100002.23;1662044;84;22330;-60
2022/03/09 13:56:33;;;;;;;4.87;3.80;;;;;;;9.51;33.00;99993.78;1662183;85;22229;-60
2022/03/09 13:58:59;;;;;;;4.65;3.72;;;;;;;9.39;32.89;99998.13;1670432;82;21437;-61
2022/03/09 14:01:32;;;;;;;5.58;3.92;;;;;;;9.33;33.16;100001.35;1697141;82;21595;-60
2022/03/09 14:04:03;;;;;;;5.00;4.50;;;;;;;9.23;33.17;100006.50;1690214;82;21590;-60
2022/03/09 14:06:30;;;;;;;4.80;4.28;;;;;;;9.12;33.96;100009.91;1678672;83;22298;-60
2022/03/09 14:08:57;;;;;;;8.23;4.90;;;;;;;8.90;35.50;100010.55;1683679;83;21431;-59
2022/03/09 14:11:28;;;;;;;5.58;4.87;;;;;;;8.76;36.08;100012.74;1687544;83;21518;-59
2022/03/09 14:14:00;;;;;;;4.47;4.08;;;;;;;8.65;37.19;100013.05;1681603;83;21542;-60
2022/03/09 14:16:31;;;;;;;7.47;4.92;;;;;;;8.60;37.42;100018.02;1686393;82;21507;-60
2022/03/09 14:18:58;;;;;;;4.97;4.28;;;;;;;8.52;37.82;100023.02;1700143;83;22354;-60
2022/03/09 14:21:25;;;;;;;5.70;4.42;;;;;;;8.77;37.63;100022.30;1696518;83;21503;-60
2022/03/09 14:23:57;;;;;;;4.70;4.22;;;;;;;9.14;36.93;100023.84;1694381;83;20968;-60
